Time;durP1;ratioP1;P1;durP2;ratioP2;P2;SDS_P1;SDS_P2;PMS_P1;PMS_P2;Temp;Humidity;BMP_temperature;BMP_pressure;BME280_temperature;BME280_humidity;BME280_pressure;Samples;Min_cycle;Max_cycle;Signal;HPM_P1;HPM_P2
2021/08/29 00:01:10;;;;;;;0.10;0.10;;;19.00;63.00;;;;;;5079857;28;20217;-71
2021/08/29 00:03:37;;;;;;;0.10;0.10;;;19.10;62.80;;;;;;5058379;28;20254;-71
2021/08/29 00:06:05;;;;;;;0.10;0.10;;;19.10;62.70;;;;;;5062270;28;20304;-71
2021/08/29 00:08:32;;;;;;;0.10;0.10;;;19.10;62.60;;;;;;5055453;28;20302;-71
2021/08/29 00:10:59;;;;;;;0.10;0.10;;;19.20;62.70;;;;;;5061106;28;20230;-71
2021/08/29 00:13:27;;;;;;;0.10;0.10;;;19.10;62.60;;;;;;5067796;28;20694;-71
2021/08/29 00:15:54;;;;;;;0.10;0.10;;;19.20;62.90;;;;;;5064942;28;20210;-71
2021/08/29 00:18:21;;;;;;;0.10;0.10;;;19.10;63.10;;;;;;5061609;28;20213;-71
2021/08/29 00:20:48;;;;;;;0.10;0.10;;;19.10;63.40;;;;;;5061912;28;20213;-71
2021/08/29 00:23:16;;;;;;;0.10;0.10;;;19.00;63.70;;;;;;5064360;28;20576;-71
2021/08/29 00:25:43;;;;;;;0.10;0.10;;;19.10;64.20;;;;;;5058123;28;20244;-71
2021/08/29 00:28:10;;;;;;;0.10;0.10;;;19.00;64.50;;;;;;5061350;28;20270;-71
2021/08/29 00:30:37;;;;;;;0.10;0.10;;;19.00;64.80;;;;;;5061384;28;20303;-70
2021/08/29 00:33:04;;;;;;;0.10;0.10;;;18.90;65.70;;;;;;5065097;28;20214;-70
2021/08/29 00:35:33;;;;;;;0.10;0.10;;;18.90;65.60;;;;;;5065273;28;20206;-70
2021/08/29 00:38:00;;;;;;;0.10;0.10;;;18.80;65.90;;;;;;5058516;28;20214;-70
2021/08/29 00:40:28;;;;;;;0.10;0.10;;;18.80;66.30;;;;;;5064032;28;20529;-70
2021/08/29 00:42:55;;;;;;;0.10;0.10;;;18.80;66.80;;;;;;5062640;28;20210;-70
2021/08/29 00:45:25;;;;;;;0.00;0.00;;;18.80;67.60;;;;;;5064004;28;20226;-70
2021/08/29 00:47:52;;;;;;;0.07;0.07;;;18.70;68.40;;;;;;5063815;28;20225;-71
2021/08/29 00:50:19;;;;;;;0.00;0.00;;;18.60;68.70;;;;;;5061469;28;20234;-72
2021/08/29 00:52:46;;;;;;;0.00;0.00;;;18.60;69.00;;;;;;5065608;28;20225;-71
2021/08/29 00:55:13;;;;;;;0.10;0.10;;;18.50;69.40;;;;;;5058881;28;20264;-71
2021/08/29 00:57:42;;;;;;;0.10;0.10;;;18.50;69.80;;;;;;5064623;28;20210;-71
2021/08/29 01:00:10;;;;;;;0.00;0.00;;;18.50;70.40;;;;;;5063804;28;20201;-71
2021/08/29 01:02:39;;;;;;;0.07;0.07;;;18.50;71.00;;;;;;5041287;28;20219;-71
2021/08/29 01:05:12;;;;;;;0.00;0.00;;;18.40;71.40;;;;;;5063299;28;20241;-71
2021/08/29 01:07:59;;;;;;;0.10;0.10;;;18.40;71.90;;;;;;5063332;28;20268;-71
2021/08/29 01:10:34;;;;;;;0.10;0.10;;;18.40;72.60;;;;;;5059232;28;20229;-71
2021/08/29 01:13:10;;;;;;;0.10;0.10;;;18.40;73.10;;;;;;5060974;28;20221;-71
2021/08/29 01:15:38;;;;;;;0.07;0.07;;;18.30;74.60;;;;;;5060791;28;20733;-71
2021/08/29 01:18:07;;;;;;;0.30;0.30;;;18.30;75.00;;;;;;5064586;28;20209;-71
2021/08/29 01:21:05;;;;;;;0.10;0.10;;;18.20;75.50;;;;;;5060620;28;20677;-71
2021/08/29 01:23:38;;;;;;;0.10;0.10;;;18.10;75.90;;;;;;5060455;28;20219;-71
2021/08/29 01:26:21;;;;;;;0.10;0.10;;;18.10;76.10;;;;;;5061431;28;20218;-71
2021/08/29 01:28:55;;;;;;;0.10;0.10;;;18.00;76.60;;;;;;5059612;28;20647;-71
2021/08/29 01:31:25;;;;;;;0.10;0.10;;;17.90;76.80;;;;;;5060843;28;21047;-71
2021/08/29 01:33:56;;;;;;;0.00;0.00;;;17.90;77.00;;;;;;5066769;28;20215;-71
2021/08/29 01:36:24;;;;;;;0.10;0.10;;;17.90;76.90;;;;;;5056715;28;20636;-72
2021/08/29 01:38:51;;;;;;;0.10;0.10;;;17.80;77.00;;;;;;5064001;28;20605;-72
2021/08/29 01:41:20;;;;;;;0.10;0.10;;;17.80;77.10;;;;;;5061137;28;20218;-72
2021/08/29 01:43:47;;;;;;;0.10;0.10;;;17.80;77.30;;;;;;5062337;28;20240;-72
2021/08/29 01:46:16;;;;;;;0.00;0.00;;;17.80;77.60;;;;;;5062043;28;20257;-72
2021/08/29 01:48:45;;;;;;;0.10;0.10;;;17.80;77.60;;;;;;5060134;28;20557;-72
2021/08/29 01:51:13;;;;;;;0.10;0.10;;;17.80;77.70;;;;;;5062784;28;20671;-72
2021/08/29 01:53:40;;;;;;;0.10;0.10;;;17.80;77.90;;;;;;5060930;28;20218;-72
2021/08/29 01:56:08;;;;;;;0.10;0.10;;;17.70;78.20;;;;;;5064098;28;20221;-72
2021/08/29 01:58:35;;;;;;;0.10;0.10;;;17.70;78.30;;;;;;5056716;28;20256;-72
2021/08/29 02:01:09;;;;;;;0.10;0.10;;;17.70;78.40;;;;;;5060316;28;20218;-72
2021/08/29 02:03:40;;;;;;;0.10;0.10;;;17.70;78.50;;;;;;5066806;28;20255;-72
2021/08/29 02:06:29;;;;;;;0.10;0.10;;;17.60;78.70;;;;;;5065003;28;20300;-72
2021/08/29 02:09:00;;;;;;;0.10;0.10;;;17.60;78.90;;;;;;5080260;28;20274;-72
2021/08/29 02:11:34;;;;;;;0.10;0.10;;;17.60;79.10;;;;;;5063614;28;20268;-72
2021/08/29 02:14:03;;;;;;;0.10;0.10;;;17.50;79.00;;;;;;5066762;28;20213;-72
2021/08/29 02:16:36;;;;;;;0.10;0.10;;;17.50;79.00;;;;;;5076989;28;20223;-72
2021/08/29 02:19:04;;;;;;;0.00;0.00;;;17.50;78.80;;;;;;5080357;28;20225;-72
2021/08/29 02:21:33;;;;;;;0.00;0.00;;;17.50;79.00;;;;;;5063893;28;20281;-72
2021/08/29 02:24:04;;;;;;;0.10;0.10;;;17.40;79.20;;;;;;5082924;28;20213;-72
2021/08/29 02:26:31;;;;;;;0.10;0.10;;;17.40;79.40;;;;;;5080121;28;20268;-72
2021/08/29 02:28:59;;;;;;;0.00;0.00;;;17.30;79.60;;;;;;5083846;28;20217;-72
2021/08/29 02:31:27;;;;;;;0.10;0.10;;;17.20;79.80;;;;;;5079364;28;20301;-72
2021/08/29 02:33:54;;;;;;;0.00;0.00;;;17.20;80.00;;;;;;5080466;28;20209;-72
2021/08/29 02:36:21;;;;;;;0.10;0.10;;;17.20;80.10;;;;;;5081549;28;20223;-72
2021/08/29 02:38:52;;;;;;;0.00;0.00;;;17.10;80.30;;;;;;5063456;28;20205;-72
2021/08/29 02:41:20;;;;;;;0.10;0.10;;;17.10;80.40;;;;;;5063681;28;20213;-72
2021/08/29 02:43:49;;;;;;;0.00;0.00;;;17.10;80.60;;;;;;5064993;28;20225;-72
2021/08/29 02:46:16;;;;;;;0.00;0.00;;;17.00;80.60;;;;;;5080427;28;20213;-72
2021/08/29 02:48:44;;;;;;;0.00;0.00;;;17.00;80.70;;;;;;5080225;28;20220;-72
2021/08/29 02:51:12;;;;;;;0.00;0.00;;;17.00;80.80;;;;;;5075075;28;20634;-72
2021/08/29 02:53:43;;;;;;;0.10;0.10;;;16.90;80.90;;;;;;5064215;28;20205;-72
2021/08/29 02:56:11;;;;;;;0.10;0.10;;;16.90;81.00;;;;;;5079194;28;20701;-72
2021/08/29 02:58:39;;;;;;;0.00;0.00;;;16.90;81.10;;;;;;5072142;28;20213;-72
2021/08/29 03:01:06;;;;;;;0.10;0.10;;;16.90;81.40;;;;;;5078971;28;20632;-72
2021/08/29 03:03:34;;;;;;;0.00;0.00;;;16.80;81.50;;;;;;5080677;28;20240;-72
2021/08/29 03:06:01;;;;;;;0.10;0.10;;;16.80;81.60;;;;;;5083244;28;20244;-72
2021/08/29 03:08:28;;;;;;;0.00;0.00;;;16.80;81.70;;;;;;5082372;28;20577;-72
2021/08/29 03:10:57;;;;;;;0.00;0.00;;;16.80;81.90;;;;;;5064761;28;20224;-72
2021/08/29 03:13:26;;;;;;;0.00;0.00;;;16.80;81.70;;;;;;5075682;28;20209;-72
2021/08/29 03:15:54;;;;;;;0.20;0.20;;;16.80;81.90;;;;;;5064688;28;20217;-72
2021/08/29 03:18:22;;;;;;;0.10;0.10;;;16.70;81.90;;;;;;5080498;28;20538;-72
2021/08/29 03:20:51;;;;;;;0.00;0.00;;;16.70;82.10;;;;;;5097293;28;20240;-72
2021/08/29 03:23:19;;;;;;;0.10;0.10;;;16.60;82.20;;;;;;5081663;28;20224;-72
2021/08/29 03:25:47;;;;;;;0.10;0.10;;;16.50;82.40;;;;;;5080196;28;20221;-72
2021/08/29 03:28:14;;;;;;;0.10;0.10;;;16.50;82.40;;;;;;5082279;28;20201;-72
2021/08/29 03:30:42;;;;;;;0.10;0.10;;;16.40;82.50;;;;;;5077638;28;20205;-72
2021/08/29 03:33:10;;;;;;;0.00;0.00;;;16.40;82.50;;;;;;5079619;28;20213;-72
2021/08/29 03:35:37;;;;;;;0.10;0.10;;;16.40;82.50;;;;;;5075461;28;20204;-72
2021/08/29 03:38:06;;;;;;;0.10;0.10;;;16.40;82.50;;;;;;5079566;28;20719;-72
2021/08/29 03:40:34;;;;;;;0.20;0.20;;;16.40;82.50;;;;;;5078914;28;20206;-72
2021/08/29 03:43:01;;;;;;;0.10;0.10;;;16.40;82.50;;;;;;5081527;28;20216;-72
2021/08/29 03:45:29;;;;;;;1.00;1.00;;;16.40;82.50;;;;;;5080669;28;20209;-72
2021/08/29 03:47:56;;;;;;;0.00;0.00;;;16.30;82.50;;;;;;5082444;28;20213;-72
2021/08/29 03:50:25;;;;;;;0.10;0.10;;;16.30;82.60;;;;;;5085457;28;20206;-72
2021/08/29 03:52:53;;;;;;;0.10;0.10;;;16.30;82.60;;;;;;5083462;28;20302;-72
2021/08/29 03:55:20;;;;;;;0.00;0.00;;;16.30;82.80;;;;;;5067181;28;20220;-72
2021/08/29 03:57:50;;;;;;;0.10;0.10;;;16.30;82.90;;;;;;5082752;28;20205;-72
2021/08/29 04:00:18;;;;;;;0.00;0.00;;;16.30;82.90;;;;;;5079097;28;20213;-72
2021/08/29 04:02:45;;;;;;;0.10;0.10;;;16.30;83.50;;;;;;5074700;28;20205;-72
2021/08/29 04:05:13;;;;;;;0.10;0.10;;;16.20;83.00;;;;;;5084866;28;20240;-72
2021/08/29 04:07:43;;;;;;;0.10;0.10;;;16.20;82.80;;;;;;5075107;28;20654;-72
2021/08/29 04:10:15;;;;;;;0.10;0.10;;;16.20;82.90;;;;;;5083798;28;20290;-72
2021/08/29 04:12:43;;;;;;;0.10;0.10;;;16.10;83.00;;;;;;5082492;28;20245;-72
2021/08/29 04:15:11;;;;;;;0.10;0.10;;;16.10;83.00;;;;;;5082245;28;20210;-72
2021/08/29 04:17:39;;;;;;;0.10;0.10;;;16.00;83.10;;;;;;5085621;28;20650;-72
2021/08/29 04:20:07;;;;;;;0.10;0.10;;;16.10;83.10;;;;;;5065545;28;20271;-72
2021/08/29 04:22:35;;;;;;;0.10;0.10;;;16.10;83.20;;;;;;5084707;28;20665;-73
2021/08/29 04:25:02;;;;;;;0.00;0.00;;;16.00;83.10;;;;;;5086261;28;20224;-72
2021/08/29 04:27:29;;;;;;;0.00;0.00;;;16.00;83.10;;;;;;5084217;28;20233;-72
2021/08/29 04:29:56;;;;;;;0.10;0.10;;;16.00;83.00;;;;;;5066674;28;20266;-72
2021/08/29 04:32:25;;;;;;;0.10;0.10;;;16.00;83.00;;;;;;5066850;28;20237;-72
2021/08/29 04:34:53;;;;;;;0.00;0.00;;;16.00;83.00;;;;;;5065065;28;20210;-72
2021/08/29 04:37:20;;;;;;;0.00;0.00;;;16.00;83.00;;;;;;5081906;28;20627;-72
2021/08/29 04:39:47;;;;;;;0.00;0.00;;;16.00;83.00;;;;;;5085887;28;20217;-72
2021/08/29 04:42:14;;;;;;;0.00;0.00;;;16.00;82.90;;;;;;5082369;28;20228;-72
2021/08/29 04:44:41;;;;;;;0.10;0.10;;;16.00;83.00;;;;;;5067862;28;20213;-72
2021/08/29 04:47:09;;;;;;;0.10;0.10;;;16.00;83.00;;;;;;5080623;28;20218;-72
2021/08/29 04:49:36;;;;;;;0.00;0.00;;;16.00;83.00;;;;;;5079609;28;20554;-72
2021/08/29 04:52:04;;;;;;;0.10;0.10;;;15.90;82.90;;;;;;5083705;28;20227;-72
2021/08/29 04:54:31;;;;;;;0.00;0.00;;;15.90;82.90;;;;;;5066391;28;20689;-72
2021/08/29 04:56:59;;;;;;;0.00;0.00;;;15.90;83.50;;;;;;5083563;28;20650;-72
2021/08/29 04:59:26;;;;;;;0.10;0.10;;;15.90;82.90;;;;;;5078111;28;20224;-72
2021/08/29 05:01:53;;;;;;;0.00;0.00;;;16.00;83.40;;;;;;5080812;28;20644;-72
2021/08/29 05:04:21;;;;;;;0.10;0.10;;;16.00;82.50;;;;;;5082248;28;20636;-72
2021/08/29 05:06:48;;;;;;;0.10;0.10;;;16.00;82.40;;;;;;5085258;28;20230;-72
2021/08/29 05:09:15;;;;;;;0.10;0.10;;;16.00;82.30;;;;;;5077803;28;20734;-72
2021/08/29 05:11:42;;;;;;;0.10;0.10;;;16.10;82.30;;;;;;5084494;28;20224;-72
2021/08/29 05:14:11;;;;;;;0.10;0.10;;;16.30;82.40;;;;;;5064824;28;20639;-72
2021/08/29 05:16:38;;;;;;;0.10;0.10;;;16.50;82.30;;;;;;5083446;28;20213;-72
2021/08/29 05:19:05;;;;;;;0.00;0.00;;;16.70;81.90;;;;;;5082887;28;20221;-72
2021/08/29 05:21:32;;;;;;;0.10;0.10;;;17.10;81.00;;;;;;5083271;28;20628;-72
2021/08/29 05:23:59;;;;;;;0.10;0.10;;;17.30;80.40;;;;;;5082773;28;20282;-72
2021/08/29 05:26:27;;;;;;;0.00;0.00;;;17.50;79.70;;;;;;5083527;28;20228;-72
2021/08/29 05:28:53;;;;;;;0.10;0.10;;;17.80;79.10;;;;;;5063664;28;20263;-72
2021/08/29 05:31:20;;;;;;;0.00;0.00;;;18.10;78.20;;;;;;5080558;28;20566;-72
2021/08/29 05:33:47;;;;;;;0.00;0.00;;;18.50;77.20;;;;;;5081145;28;20241;-72
2021/08/29 05:36:14;;;;;;;0.10;0.10;;;18.80;76.00;;;;;;5084569;28;20205;-72
2021/08/29 05:38:41;;;;;;;0.10;0.10;;;18.90;75.10;;;;;;5077366;28;20218;-72
2021/08/29 05:41:08;;;;;;;0.00;0.00;;;19.00;74.80;;;;;;5084162;28;20576;-72
2021/08/29 05:43:35;;;;;;;0.00;0.00;;;18.90;74.80;;;;;;5081573;28;20210;-73
2021/08/29 05:46:02;;;;;;;0.00;0.00;;;18.80;74.80;;;;;;5065800;28;20213;-74
2021/08/29 05:48:30;;;;;;;0.10;0.10;;;18.80;74.80;;;;;;5082059;28;20209;-73
2021/08/29 05:51:00;;;;;;;0.00;0.00;;;18.80;74.90;;;;;;5082197;28;20445;-73
2021/08/29 05:53:28;;;;;;;0.07;0.07;;;18.90;74.90;;;;;;5082988;28;20744;-73
2021/08/29 05:55:56;;;;;;;0.00;0.00;;;18.90;74.70;;;;;;5064025;28;20217;-73
2021/08/29 05:58:23;;;;;;;0.00;0.00;;;19.00;74.50;;;;;;5081101;28;20323;-73
2021/08/29 06:00:50;;;;;;;0.10;0.10;;;19.00;74.20;;;;;;5059763;28;20676;-73
2021/08/29 06:03:17;;;;;;;0.00;0.00;;;19.10;74.00;;;;;;5084121;28;20602;-73
2021/08/29 06:05:44;;;;;;;0.10;0.10;;;19.10;73.80;;;;;;5076437;28;20220;-73
2021/08/29 06:08:11;;;;;;;0.00;0.00;;;19.20;73.70;;;;;;5084142;28;21328;-73
2021/08/29 06:10:38;;;;;;;0.00;0.00;;;19.30;73.20;;;;;;5080691;28;20694;-73
2021/08/29 06:13:06;;;;;;;0.10;0.10;;;19.50;73.20;;;;;;5098804;28;20237;-73
2021/08/29 06:15:33;;;;;;;0.00;0.00;;;19.60;72.80;;;;;;5063968;28;20210;-73
2021/08/29 06:18:00;;;;;;;0.10;0.10;;;19.80;72.40;;;;;;5082404;28;20221;-73
2021/08/29 06:20:27;;;;;;;0.00;0.00;;;20.00;71.50;;;;;;5081956;28;20639;-73
2021/08/29 06:22:54;;;;;;;0.10;0.10;;;20.10;70.50;;;;;;5081317;28;20369;-73
2021/08/29 06:25:21;;;;;;;0.20;0.20;;;20.20;69.50;;;;;;5082867;28;20217;-73
2021/08/29 06:27:48;;;;;;;0.00;0.00;;;20.30;68.70;;;;;;5079946;28;20213;-73
2021/08/29 06:30:16;;;;;;;0.87;0.87;;;20.30;68.60;;;;;;5058837;28;20222;-74
2021/08/29 06:32:43;;;;;;;0.00;0.00;;;20.40;68.80;;;;;;5075402;28;20732;-73
2021/08/29 06:35:11;;;;;;;0.10;0.10;;;20.60;68.60;;;;;;5051443;28;20210;-73
2021/08/29 06:37:38;;;;;;;0.00;0.00;;;20.70;68.20;;;;;;5082990;28;20642;-73
2021/08/29 06:40:06;;;;;;;0.10;0.10;;;20.80;67.50;;;;;;5063357;28;20206;-73
2021/08/29 06:42:32;;;;;;;0.10;0.10;;;20.90;67.10;;;;;;5064749;28;20219;-73
2021/08/29 06:44:59;;;;;;;0.10;0.10;;;20.90;66.40;;;;;;5063712;28;20225;-73
2021/08/29 06:47:27;;;;;;;0.10;0.10;;;20.90;66.70;;;;;;5063810;28;20262;-73
2021/08/29 06:49:54;;;;;;;0.00;0.00;;;21.00;66.70;;;;;;5082064;28;20221;-73
2021/08/29 06:52:20;;;;;;;0.00;0.00;;;21.10;65.80;;;;;;5060097;28;20755;-73
2021/08/29 06:54:48;;;;;;;0.00;0.00;;;21.20;65.00;;;;;;5082372;28;20282;-73
2021/08/29 06:57:24;;;;;;;0.00;0.00;;;21.20;65.10;;;;;;5079555;28;20214;-73
2021/08/29 06:59:52;;;;;;;0.03;0.03;;;21.30;65.20;;;;;;5056576;28;20815;-73
2021/08/29 07:02:21;;;;;;;0.10;0.10;;;21.40;64.80;;;;;;5082014;28;20286;-73
2021/08/29 07:04:49;;;;;;;0.00;0.00;;;21.60;64.30;;;;;;5081218;28;20554;-73
2021/08/29 07:07:16;;;;;;;0.00;0.00;;;21.70;63.90;;;;;;5080843;28;20232;-73
2021/08/29 07:09:43;;;;;;;0.00;0.00;;;21.80;63.90;;;;;;5082173;28;20764;-73
2021/08/29 07:12:12;;;;;;;0.10;0.10;;;22.00;63.40;;;;;;5062691;28;20240;-73
2021/08/29 07:14:39;;;;;;;0.10;0.10;;;22.10;62.90;;;;;;5082961;28;20224;-73
2021/08/29 07:17:06;;;;;;;0.00;0.00;;;22.20;62.30;;;;;;5083135;28;20232;-73
2021/08/29 07:19:33;;;;;;;0.67;0.67;;;22.30;61.70;;;;;;5057976;28;20221;-73
2021/08/29 07:22:01;;;;;;;0.10;0.10;;;22.40;61.40;;;;;;5098340;28;20299;-73
2021/08/29 07:24:28;;;;;;;0.00;0.00;;;22.50;61.40;;;;;;5084452;28;20236;-73
2021/08/29 07:26:55;;;;;;;0.00;0.00;;;22.60;60.60;;;;;;5086170;28;20224;-73
2021/08/29 07:29:22;;;;;;;0.00;0.00;;;22.70;59.80;;;;;;5065541;28;20275;-73
2021/08/29 07:31:49;;;;;;;0.17;0.17;;;22.80;59.00;;;;;;5075600;28;20679;-73
2021/08/29 07:34:16;;;;;;;3.70;2.10;;;22.90;58.60;;;;;;5084960;28;20205;-73
2021/08/29 07:36:43;;;;;;;0.43;0.43;;;23.10;57.90;;;;;;5067160;28;20205;-73
2021/08/29 07:39:10;;;;;;;0.23;0.23;;;23.20;57.70;;;;;;5076777;28;20208;-73
2021/08/29 07:41:37;;;;;;;0.20;0.20;;;23.20;57.40;;;;;;5084045;28;20213;-73
2021/08/29 07:44:05;;;;;;;0.40;0.40;;;23.30;57.00;;;;;;5086482;28;20215;-73
2021/08/29 07:46:33;;;;;;;0.00;0.00;;;23.30;56.50;;;;;;5083199;28;20209;-73
2021/08/29 07:49:00;;;;;;;0.00;0.00;;;23.50;56.10;;;;;;5079382;28;20210;-73
2021/08/29 07:51:32;;;;;;;0.00;0.00;;;23.70;56.20;;;;;;5101123;28;20399;-73
2021/08/29 07:54:00;;;;;;;0.00;0.00;;;23.90;55.60;;;;;;5084128;28;20234;-73
2021/08/29 07:56:26;;;;;;;0.00;0.00;;;24.10;55.30;;;;;;5063953;28;20209;-73
2021/08/29 07:58:53;;;;;;;0.10;0.10;;;24.30;54.60;;;;;;5075978;28;20601;-73
2021/08/29 08:01:21;;;;;;;0.00;0.00;;;24.50;54.30;;;;;;5084180;28;20269;-73
2021/08/29 08:03:48;;;;;;;0.00;0.00;;;24.60;53.90;;;;;;5085398;28;20253;-73
2021/08/29 08:06:20;;;;;;;0.00;0.00;;;24.60;53.30;;;;;;5065893;28;20225;-74
2021/08/29 08:08:47;;;;;;;0.00;0.00;;;24.70;53.60;;;;;;5078725;28;20209;-74
2021/08/29 08:11:14;;;;;;;0.10;0.10;;;24.90;53.50;;;;;;5086330;28;20443;-74
2021/08/29 08:13:41;;;;;;;0.07;0.07;;;25.00;52.80;;;;;;5065443;28;20298;-74
2021/08/29 08:16:10;;;;;;;0.00;0.00;;;25.10;52.20;;;;;;5085113;28;20209;-74
2021/08/29 08:18:37;;;;;;;0.00;0.00;;;25.10;51.90;;;;;;5083954;28;20267;-74
2021/08/29 08:21:04;;;;;;;0.00;0.00;;;25.10;51.30;;;;;;5066470;28;20567;-74
2021/08/29 08:23:31;;;;;;;0.00;0.00;;;25.20;51.50;;;;;;5075767;28;20553;-74
2021/08/29 08:26:00;;;;;;;0.00;0.00;;;25.20;51.30;;;;;;5082092;28;20645;-74
2021/08/29 08:28:27;;;;;;;0.10;0.10;;;25.30;51.40;;;;;;5099237;28;20283;-74
2021/08/29 08:30:54;;;;;;;0.07;0.07;;;25.40;51.10;;;;;;5072702;28;20213;-74
2021/08/29 08:33:21;;;;;;;0.00;0.00;;;25.60;50.70;;;;;;5097979;28;20314;-74
2021/08/29 08:35:48;;;;;;;0.00;0.00;;;25.70;50.40;;;;;;5070471;28;20567;-73
2021/08/29 08:38:16;;;;;;;0.10;0.10;;;25.80;49.60;;;;;;5066193;28;20210;-74
2021/08/29 08:40:43;;;;;;;0.10;0.10;;;25.90;49.20;;;;;;5085081;28;20221;-74
2021/08/29 08:43:12;;;;;;;0.10;0.10;;;26.00;49.50;;;;;;5073996;28;20241;-74
2021/08/29 08:45:39;;;;;;;0.00;0.00;;;26.20;49.60;;;;;;5084294;28;20301;-73
2021/08/29 08:48:08;;;;;;;0.00;0.00;;;26.30;49.80;;;;;;5083640;28;20217;-73
2021/08/29 08:50:36;;;;;;;0.00;0.00;;;26.20;49.00;;;;;;5083283;28;20209;-73
2021/08/29 08:53:05;;;;;;;0.10;0.10;;;26.10;49.40;;;;;;5084650;28;20290;-73
2021/08/29 08:55:32;;;;;;;0.00;0.00;;;26.10;49.00;;;;;;5080967;28;20291;-73
2021/08/29 08:58:01;;;;;;;0.00;0.00;;;25.90;48.80;;;;;;5085433;28;20223;-73
2021/08/29 09:00:28;;;;;;;0.00;0.00;;;26.00;49.50;;;;;;5078883;28;20262;-74
2021/08/29 09:02:56;;;;;;;0.00;0.00;;;26.20;49.60;;;;;;5080914;28;20209;-74
2021/08/29 09:05:24;;;;;;;0.10;0.10;;;26.50;49.20;;;;;;5082348;28;20250;-74
2021/08/29 09:07:52;;;;;;;0.00;0.00;;;26.70;47.90;;;;;;5066311;28;20635;-74
2021/08/29 09:10:18;;;;;;;0.00;0.00;;;26.70;47.30;;;;;;5083362;28;20566;-74
2021/08/29 09:13:00;;;;;;;0.10;0.10;;;26.50;46.70;;;;;;5083149;28;20711;-73
2021/08/29 09:15:28;;;;;;;0.00;0.00;;;26.40;47.60;;;;;;5077986;28;20216;-74
2021/08/29 09:17:55;;;;;;;0.10;0.10;;;26.50;47.30;;;;;;5084842;28;20668;-73
2021/08/29 09:20:29;;;;;;;0.00;0.00;;;26.50;46.80;;;;;;5064698;28;20565;-73
2021/08/29 09:23:01;;;;;;;0.00;0.00;;;26.50;47.20;;;;;;5083061;28;20216;-74
2021/08/29 09:25:31;;;;;;;0.10;0.10;;;26.60;46.80;;;;;;5084375;28;20642;-74
2021/08/29 09:28:02;;;;;;;0.00;0.00;;;26.90;46.90;;;;;;5078413;28;20673;-73
2021/08/29 09:30:31;;;;;;;0.00;0.00;;;27.20;45.10;;;;;;5081294;28;20217;-73
2021/08/29 09:33:04;;;;;;;0.10;0.10;;;27.40;44.80;;;;;;5063359;28;20261;-73
2021/08/29 09:35:34;;;;;;;0.00;0.00;;;27.50;44.60;;;;;;5077720;28;20218;-73
2021/08/29 09:38:05;;;;;;;0.00;0.00;;;27.50;44.90;;;;;;5084597;28;20209;-73
2021/08/29 09:40:37;;;;;;;0.00;0.00;;;27.70;44.90;;;;;;5067103;28;20224;-73
2021/08/29 09:43:06;;;;;;;0.00;0.00;;;27.80;44.10;;;;;;5063170;28;20220;-73
2021/08/29 09:45:36;;;;;;;0.00;0.00;;;27.70;43.90;;;;;;5064368;28;20216;-73
2021/08/29 09:48:08;;;;;;;0.00;0.00;;;27.70;44.50;;;;;;5082459;28;20221;-72
2021/08/29 09:50:37;;;;;;;0.00;0.00;;;27.70;44.30;;;;;;5083953;28;20634;-72
2021/08/29 09:53:08;;;;;;;0.00;0.00;;;27.60;44.00;;;;;;5077240;28;20237;-72
2021/08/29 09:55:38;;;;;;;0.10;0.10;;;27.80;44.30;;;;;;5082515;28;20197;-73
2021/08/29 09:58:31;;;;;;;0.00;0.00;;;28.00;44.20;;;;;;5082703;28;20215;-73
2021/08/29 10:01:03;;;;;;;0.00;0.00;;;28.30;43.90;;;;;;5077856;28;20733;-73
2021/08/29 10:03:30;;;;;;;0.00;0.00;;;28.40;41.90;;;;;;5081554;28;20459;-73
2021/08/29 10:06:24;;;;;;;0.20;0.20;;;28.40;42.70;;;;;;5081631;28;20208;-73
2021/08/29 10:09:03;;;;;;;0.00;0.00;;;28.40;40.80;;;;;;5082390;28;20705;-73
2021/08/29 10:11:32;;;;;;;0.00;0.00;;;28.40;41.70;;;;;;5077714;28;20238;-73
2021/08/29 10:14:00;;;;;;;0.13;0.13;;;28.60;41.60;;;;;;5082843;28;20316;-72
2021/08/29 10:16:28;;;;;;;0.00;0.00;;;28.80;41.50;;;;;;5081966;28;20213;-72
2021/08/29 10:18:57;;;;;;;1.80;0.63;;;29.00;40.70;;;;;;5081623;28;20209;-72
2021/08/29 10:21:29;;;;;;;0.00;0.00;;;29.10;39.40;;;;;;5065353;28;20209;-72
2021/08/29 10:23:58;;;;;;;0.10;0.10;;;29.20;39.80;;;;;;5076141;28;20445;-73
2021/08/29 10:26:26;;;;;;;0.00;0.00;;;29.20;38.70;;;;;;5065632;28;20213;-73
2021/08/29 10:29:06;;;;;;;0.00;0.00;;;29.20;38.80;;;;;;5063573;28;20293;-72
2021/08/29 10:31:38;;;;;;;0.03;0.03;;;29.30;39.40;;;;;;5062120;28;20209;-72
2021/08/29 10:34:06;;;;;;;0.20;0.20;;;29.60;37.90;;;;;;5058292;28;20316;-72
2021/08/29 10:36:35;;;;;;;0.00;0.00;;;29.60;38.00;;;;;;5079441;28;20216;-72
2021/08/29 10:39:03;;;;;;;0.00;0.00;;;29.70;38.30;;;;;;5064917;28;20688;-72
2021/08/29 10:41:31;;;;;;;0.00;0.00;;;29.80;38.20;;;;;;5080932;28;20213;-72
2021/08/29 10:43:58;;;;;;;0.00;0.00;;;29.80;37.80;;;;;;5081915;28;20241;-72
2021/08/29 10:46:26;;;;;;;0.00;0.00;;;29.90;38.20;;;;;;5081806;28;20218;-72
2021/08/29 10:48:54;;;;;;;0.00;0.00;;;30.10;36.60;;;;;;5080971;28;20463;-72
2021/08/29 10:51:27;;;;;;;0.00;0.00;;;29.90;36.40;;;;;;5065001;28;20224;-72
2021/08/29 10:53:56;;;;;;;0.00;0.00;;;29.80;37.30;;;;;;5076262;28;20240;-72
2021/08/29 10:56:23;;;;;;;0.00;0.00;;;29.90;37.50;;;;;;5082544;28;20213;-72
2021/08/29 10:59:08;;;;;;;0.00;0.00;;;30.10;37.40;;;;;;5064534;28;20228;-72
2021/08/29 11:01:37;;;;;;;0.00;0.00;;;30.20;36.30;;;;;;5074347;28;20217;-72
2021/08/29 11:04:43;;;;;;;0.00;0.00;;;30.10;36.60;;;;;;5082553;28;20583;-72
2021/08/29 11:07:10;;;;;;;0.10;0.10;;;30.00;37.00;;;;;;4999363;28;20219;-72
2021/08/29 11:09:38;;;;;;;0.00;0.00;;;30.00;36.40;;;;;;5066827;28;20217;-72
2021/08/29 11:12:06;;;;;;;0.10;0.10;;;29.90;36.00;;;;;;5073024;28;20278;-72
2021/08/29 11:14:40;;;;;;;0.00;0.00;;;29.60;36.20;;;;;;5079874;28;20264;-72
2021/08/29 11:17:13;;;;;;;0.00;0.00;;;29.20;36.70;;;;;;5087537;28;20290;-72
2021/08/29 11:19:45;;;;;;;0.10;0.10;;;29.30;37.00;;;;;;5081226;28;20213;-72
2021/08/29 11:22:16;;;;;;;0.00;0.00;;;29.40;37.00;;;;;;5080390;28;20209;-72
2021/08/29 11:24:56;;;;;;;0.00;0.00;;;29.50;36.60;;;;;;5083085;28;20650;-72
2021/08/29 11:27:35;;;;;;;0.00;0.00;;;29.60;36.20;;;;;;5078678;28;20213;-72
2021/08/29 11:30:06;;;;;;;0.00;0.00;;;29.50;36.40;;;;;;5075506;28;20225;-72
2021/08/29 11:33:03;;;;;;;0.00;0.00;;;29.50;36.80;;;;;;5075918;28;20482;-72
2021/08/29 11:35:34;;;;;;;0.10;0.10;;;29.60;36.80;;;;;;5055501;28;20205;-72
2021/08/29 11:38:14;;;;;;;0.00;0.00;;;29.80;37.00;;;;;;5063694;28;20237;-72
2021/08/29 11:40:53;;;;;;;0.00;0.00;;;30.00;36.90;;;;;;5074940;28;20221;-72
2021/08/29 11:43:27;;;;;;;0.10;0.10;;;30.30;36.90;;;;;;5081103;28;20765;-72
2021/08/29 11:46:03;;;;;;;0.20;0.20;;;30.50;36.40;;;;;;5073369;28;20462;-72
2021/08/29 11:48:32;;;;;;;0.20;0.20;;;30.40;35.00;;;;;;5059886;28;20213;-72
2021/08/29 11:51:03;;;;;;;0.00;0.00;;;30.20;36.00;;;;;;5063853;28;20209;-72
2021/08/29 11:53:43;;;;;;;0.00;0.00;;;30.30;36.30;;;;;;5081149;28;20229;-72
2021/08/29 11:56:10;;;;;;;0.00;0.00;;;30.40;36.30;;;;;;5075533;28;20634;-72
2021/08/29 11:58:37;;;;;;;0.00;0.00;;;30.60;36.40;;;;;;5079685;28;20275;-72
2021/08/29 12:01:06;;;;;;;0.00;0.00;;;30.70;36.00;;;;;;5064006;28;20213;-72
2021/08/29 12:03:37;;;;;;;0.10;0.10;;;30.80;36.20;;;;;;5080177;28;20245;-72
2021/08/29 12:06:11;;;;;;;0.00;0.00;;;30.80;35.60;;;;;;5078509;28;20309;-72
2021/08/29 12:08:55;;;;;;;0.10;0.10;;;30.90;35.90;;;;;;5084031;28;20217;-72
2021/08/29 12:11:25;;;;;;;0.10;0.10;;;30.90;35.90;;;;;;5082999;28;20290;-72
2021/08/29 12:13:53;;;;;;;0.00;0.00;;;31.00;35.40;;;;;;5083552;28;20583;-72
2021/08/29 12:16:20;;;;;;;0.00;0.00;;;31.00;35.30;;;;;;5085693;28;20205;-72
2021/08/29 12:18:49;;;;;;;0.00;0.00;;;31.00;34.90;;;;;;5082617;28;20217;-72
2021/08/29 12:21:17;;;;;;;0.07;0.07;;;30.90;34.60;;;;;;5074374;28;20284;-72
2021/08/29 12:23:45;;;;;;;0.00;0.00;;;30.90;34.70;;;;;;5085432;28;20627;-72
2021/08/29 12:26:19;;;;;;;0.00;0.00;;;30.90;34.70;;;;;;5065906;28;20564;-72
2021/08/29 12:28:58;;;;;;;0.00;0.00;;;30.80;34.90;;;;;;5083777;28;20216;-72
2021/08/29 12:31:26;;;;;;;0.10;0.10;;;30.90;34.80;;;;;;5081040;28;20217;-72
2021/08/29 12:33:54;;;;;;;0.00;0.00;;;30.90;34.00;;;;;;5082076;28;20562;-72
2021/08/29 12:36:21;;;;;;;0.47;0.47;;;30.60;32.50;;;;;;5084484;28;20278;-72
2021/08/29 12:38:54;;;;;;;0.00;0.00;;;30.20;33.40;;;;;;5083733;28;21069;-72
2021/08/29 12:41:22;;;;;;;0.00;0.00;;;30.10;34.40;;;;;;5082925;28;20685;-72
2021/08/29 12:43:51;;;;;;;0.00;0.00;;;30.10;34.40;;;;;;5085400;28;20240;-72
2021/08/29 12:46:18;;;;;;;0.00;0.00;;;30.00;33.80;;;;;;5081809;28;20224;-72
2021/08/29 12:48:46;;;;;;;0.10;0.10;;;30.00;34.10;;;;;;5078265;28;20245;-72
2021/08/29 12:51:14;;;;;;;0.00;0.00;;;29.90;33.20;;;;;;5085081;28;20209;-72
2021/08/29 12:53:41;;;;;;;0.00;0.00;;;29.70;34.20;;;;;;5082500;28;20237;-72
2021/08/29 12:56:22;;;;;;;0.00;0.00;;;29.70;33.70;;;;;;5084229;28;20635;-72
2021/08/29 12:58:49;;;;;;;0.10;0.10;;;29.60;33.70;;;;;;5067714;28;20654;-72